sensor_id;sensor_type;location;lat;lon;timestamp;P1;durP1;ratioP1;P2;durP2;ratioP2
73693;SDS011;61997;53.974;11.670;2023-02-19T00:01:28;61.08;;;32.10;;
73693;SDS011;61997;53.974;11.670;2023-02-19T00:03:57;58.97;;;30.92;;
73693;SDS011;61997;53.974;11.670;2023-02-19T00:06:24;57.15;;;29.23;;
73693;SDS011;61997;53.974;11.670;2023-02-19T00:08:51;58.92;;;29.95;;
73693;SDS011;61997;53.974;11.670;2023-02-19T00:11:18;57.08;;;29.63;;
73693;SDS011;61997;53.974;11.670;2023-02-19T00:13:45;53.15;;;31.17;;
73693;SDS011;61997;53.974;11.670;2023-02-19T00:16:14;53.80;;;27.77;;
73693;SDS011;61997;53.974;11.670;2023-02-19T00:18:41;51.83;;;27.83;;
73693;SDS011;61997;53.974;11.670;2023-02-19T00:21:07;57.45;;;29.60;;
73693;SDS011;61997;53.974;11.670;2023-02-19T00:23:32;55.08;;;27.92;;
73693;SDS011;61997;53.974;11.670;2023-02-19T00:26:11;48.78;;;27.42;;
73693;SDS011;61997;53.974;11.670;2023-02-19T00:28:37;48.15;;;26.55;;
73693;SDS011;61997;53.974;11.670;2023-02-19T00:31:06;50.83;;;26.52;;
73693;SDS011;61997;53.974;11.670;2023-02-19T00:33:33;50.30;;;28.27;;
73693;SDS011;61997;53.974;11.670;2023-02-19T00:36:02;54.53;;;27.25;;
73693;SDS011;61997;53.974;11.670;2023-02-19T00:38:28;49.63;;;28.33;;
73693;SDS011;61997;53.974;11.670;2023-02-19T00:40:54;52.40;;;27.83;;
73693;SDS011;61997;53.974;11.670;2023-02-19T00:43:19;46.95;;;25.50;;
73693;SDS011;61997;53.974;11.670;2023-02-19T00:45:45;52.85;;;26.75;;
73693;SDS011;61997;53.974;11.670;2023-02-19T00:48:10;50.00;;;26.40;;
73693;SDS011;61997;53.974;11.670;2023-02-19T00:50:35;47.47;;;25.48;;
73693;SDS011;61997;53.974;11.670;2023-02-19T00:53:01;54.67;;;28.05;;
73693;SDS011;61997;53.974;11.670;2023-02-19T00:55:26;50.25;;;26.98;;
73693;SDS011;61997;53.974;11.670;2023-02-19T00:57:51;51.25;;;25.83;;
73693;SDS011;61997;53.974;11.670;2023-02-19T01:00:17;50.92;;;26.23;;
73693;SDS011;61997;53.974;11.670;2023-02-19T01:02:42;51.45;;;26.73;;
73693;SDS011;61997;53.974;11.670;2023-02-19T01:05:08;48.40;;;24.98;;
73693;SDS011;61997;53.974;11.670;2023-02-19T01:07:34;45.22;;;24.70;;
73693;SDS011;61997;53.974;11.670;2023-02-19T01:10:00;45.85;;;25.70;;
73693;SDS011;61997;53.974;11.670;2023-02-19T01:12:26;49.20;;;25.63;;
73693;SDS011;61997;53.974;11.670;2023-02-19T01:14:52;48.45;;;25.63;;
73693;SDS011;61997;53.974;11.670;2023-02-19T01:17:18;46.65;;;24.08;;
73693;SDS011;61997;53.974;11.670;2023-02-19T01:19:44;49.30;;;25.45;;
73693;SDS011;61997;53.974;11.670;2023-02-19T01:22:09;49.40;;;24.63;;
73693;SDS011;61997;53.974;11.670;2023-02-19T01:24:35;47.95;;;24.83;;
73693;SDS011;61997;53.974;11.670;2023-02-19T01:27:00;47.28;;;25.13;;
73693;SDS011;61997;53.974;11.670;2023-02-19T01:29:25;45.35;;;24.70;;
73693;SDS011;61997;53.974;11.670;2023-02-19T01:31:51;41.67;;;24.13;;
73693;SDS011;61997;53.974;11.670;2023-02-19T01:34:16;52.70;;;24.73;;
73693;SDS011;61997;53.974;11.670;2023-02-19T01:36:41;49.90;;;26.02;;
73693;SDS011;61997;53.974;11.670;2023-02-19T01:39:07;44.60;;;23.65;;
73693;SDS011;61997;53.974;11.670;2023-02-19T01:41:36;44.95;;;23.48;;
73693;SDS011;61997;53.974;11.670;2023-02-19T01:46:44;47.53;;;24.83;;
73693;SDS011;61997;53.974;11.670;2023-02-19T01:51:38;41.50;;;22.65;;
73693;SDS011;61997;53.974;11.670;2023-02-19T01:54:07;43.88;;;22.88;;
73693;SDS011;61997;53.974;11.670;2023-02-19T01:56:34;43.15;;;24.05;;
73693;SDS011;61997;53.974;11.670;2023-02-19T01:59:02;43.20;;;22.45;;
73693;SDS011;61997;53.974;11.670;2023-02-19T02:01:28;43.42;;;22.98;;
73693;SDS011;61997;53.974;11.670;2023-02-19T02:03:53;38.63;;;21.05;;
73693;SDS011;61997;53.974;11.670;2023-02-19T02:06:23;37.30;;;21.73;;
73693;SDS011;61997;53.974;11.670;2023-02-19T02:08:50;41.70;;;19.77;;
73693;SDS011;61997;53.974;11.670;2023-02-19T02:11:36;36.63;;;20.30;;
73693;SDS011;61997;53.974;11.670;2023-02-19T02:14:03;37.30;;;20.15;;
73693;SDS011;61997;53.974;11.670;2023-02-19T02:16:31;33.38;;;19.65;;
73693;SDS011;61997;53.974;11.670;2023-02-19T02:24:38;33.13;;;17.63;;
73693;SDS011;61997;53.974;11.670;2023-02-19T02:33:00;33.72;;;18.23;;
73693;SDS011;61997;53.974;11.670;2023-02-19T02:35:54;33.50;;;18.65;;
73693;SDS011;61997;53.974;11.670;2023-02-19T02:38:23;32.78;;;16.92;;
73693;SDS011;61997;53.974;11.670;2023-02-19T02:40:51;27.85;;;16.70;;
73693;SDS011;61997;53.974;11.670;2023-02-19T02:43:18;27.52;;;14.43;;
73693;SDS011;61997;53.974;11.670;2023-02-19T02:45:43;28.42;;;15.48;;
73693;SDS011;61997;53.974;11.670;2023-02-19T02:50:41;27.95;;;15.40;;
73693;SDS011;61997;53.974;11.670;2023-02-19T02:56:24;29.23;;;14.65;;
73693;SDS011;61997;53.974;11.670;2023-02-19T02:58:50;26.05;;;14.98;;
73693;SDS011;61997;53.974;11.670;2023-02-19T03:01:18;26.48;;;13.98;;
73693;SDS011;61997;53.974;11.670;2023-02-19T03:04:06;27.77;;;13.60;;
73693;SDS011;61997;53.974;11.670;2023-02-19T03:06:35;25.52;;;13.60;;
73693;SDS011;61997;53.974;11.670;2023-02-19T03:09:11;25.90;;;13.32;;
73693;SDS011;61997;53.974;11.670;2023-02-19T03:11:59;25.77;;;13.13;;
73693;SDS011;61997;53.974;11.670;2023-02-19T03:14:45;21.33;;;11.43;;
73693;SDS011;61997;53.974;11.670;2023-02-19T03:17:33;23.52;;;12.80;;
73693;SDS011;61997;53.974;11.670;2023-02-19T03:20:25;24.00;;;12.68;;
73693;SDS011;61997;53.974;11.670;2023-02-19T03:22:51;22.08;;;11.52;;
73693;SDS011;61997;53.974;11.670;2023-02-19T03:25:24;17.95;;;10.82;;
73693;SDS011;61997;53.974;11.670;2023-02-19T03:30:40;20.75;;;11.48;;
73693;SDS011;61997;53.974;11.670;2023-02-19T03:33:10;21.45;;;11.80;;
73693;SDS011;61997;53.974;11.670;2023-02-19T03:35:41;22.67;;;10.75;;
73693;SDS011;61997;53.974;11.670;2023-02-19T03:38:13;21.02;;;10.63;;
73693;SDS011;61997;53.974;11.670;2023-02-19T03:40:51;18.83;;;9.85;;
73693;SDS011;61997;53.974;11.670;2023-02-19T03:43:20;20.00;;;9.80;;
73693;SDS011;61997;53.974;11.670;2023-02-19T03:56:38;17.15;;;8.75;;
73693;SDS011;61997;53.974;11.670;2023-02-19T04:01:40;19.73;;;8.57;;
73693;SDS011;61997;53.974;11.670;2023-02-19T04:04:19;15.43;;;8.48;;
73693;SDS011;61997;53.974;11.670;2023-02-19T04:06:52;14.43;;;8.23;;
73693;SDS011;61997;53.974;11.670;2023-02-19T04:09:19;18.10;;;8.75;;
73693;SDS011;61997;53.974;11.670;2023-02-19T04:11:46;14.90;;;8.23;;
73693;SDS011;61997;53.974;11.670;2023-02-19T04:14:56;18.15;;;8.82;;
73693;SDS011;61997;53.974;11.670;2023-02-19T04:17:04;14.43;;;7.90;;
73693;SDS011;61997;53.974;11.670;2023-02-19T04:21:57;13.60;;;6.72;;
73693;SDS011;61997;53.974;11.670;2023-02-19T04:24:46;11.98;;;6.72;;
73693;SDS011;61997;53.974;11.670;2023-02-19T04:27:12;13.75;;;6.93;;
73693;SDS011;61997;53.974;11.670;2023-02-19T04:29:38;13.68;;;7.10;;
73693;SDS011;61997;53.974;11.670;2023-02-19T04:32:03;15.45;;;7.35;;
73693;SDS011;61997;53.974;11.670;2023-02-19T04:34:28;13.23;;;7.63;;
73693;SDS011;61997;53.974;11.670;2023-02-19T04:36:54;14.07;;;6.90;;
73693;SDS011;61997;53.974;11.670;2023-02-19T04:39:19;14.02;;;7.03;;
73693;SDS011;61997;53.974;11.670;2023-02-19T04:41:45;12.05;;;6.55;;
73693;SDS011;61997;53.974;11.670;2023-02-19T04:44:10;12.60;;;6.38;;
73693;SDS011;61997;53.974;11.670;2023-02-19T04:46:35;12.15;;;6.88;;
73693;SDS011;61997;53.974;11.670;2023-02-19T04:49:01;12.65;;;6.32;;
73693;SDS011;61997;53.974;11.670;2023-02-19T04:51:26;12.90;;;6.60;;
73693;SDS011;61997;53.974;11.670;2023-02-19T04:53:52;12.88;;;6.25;;
73693;SDS011;61997;53.974;11.670;2023-02-19T04:56:17;12.00;;;6.35;;
73693;SDS011;61997;53.974;11.670;2023-02-19T04:58:43;13.18;;;6.65;;
73693;SDS011;61997;53.974;11.670;2023-02-19T05:01:09;11.38;;;5.90;;
73693;SDS011;61997;53.974;11.670;2023-02-19T05:03:35;11.40;;;5.68;;
73693;SDS011;61997;53.974;11.670;2023-02-19T05:06:04;11.68;;;5.88;;
73693;SDS011;61997;53.974;11.670;2023-02-19T05:08:32;10.15;;;5.47;;
73693;SDS011;61997;53.974;11.670;2023-02-19T05:10:58;11.25;;;5.93;;
73693;SDS011;61997;53.974;11.670;2023-02-19T05:13:24;11.23;;;5.38;;
73693;SDS011;61997;53.974;11.670;2023-02-19T05:15:53;13.25;;;5.80;;
73693;SDS011;61997;53.974;11.670;2023-02-19T05:18:20;10.48;;;5.05;;
73693;SDS011;61997;53.974;11.670;2023-02-19T05:20:45;9.40;;;4.88;;
73693;SDS011;61997;53.974;11.670;2023-02-19T05:23:10;9.90;;;4.78;;
73693;SDS011;61997;53.974;11.670;2023-02-19T05:25:36;9.05;;;4.85;;
73693;SDS011;61997;53.974;11.670;2023-02-19T05:28:01;7.85;;;4.93;;
73693;SDS011;61997;53.974;11.670;2023-02-19T05:30:42;9.38;;;4.88;;
73693;SDS011;61997;53.974;11.670;2023-02-19T05:33:12;7.90;;;4.45;;
73693;SDS011;61997;53.974;11.670;2023-02-19T05:35:50;8.40;;;4.32;;
73693;SDS011;61997;53.974;11.670;2023-02-19T05:38:17;7.90;;;4.22;;
73693;SDS011;61997;53.974;11.670;2023-02-19T05:40:43;7.10;;;4.18;;
73693;SDS011;61997;53.974;11.670;2023-02-19T05:43:09;8.02;;;4.07;;
73693;SDS011;61997;53.974;11.670;2023-02-19T05:45:35;8.77;;;4.18;;
73693;SDS011;61997;53.974;11.670;2023-02-19T05:48:00;6.90;;;4.65;;
73693;SDS011;61997;53.974;11.670;2023-02-19T05:50:26;8.00;;;3.85;;
73693;SDS011;61997;53.974;11.670;2023-02-19T05:52:52;8.73;;;4.30;;
73693;SDS011;61997;53.974;11.670;2023-02-19T05:55:18;6.82;;;3.72;;
73693;SDS011;61997;53.974;11.670;2023-02-19T05:57:44;9.93;;;4.00;;
73693;SDS011;61997;53.974;11.670;2023-02-19T06:00:11;7.53;;;3.78;;
73693;SDS011;61997;53.974;11.670;2023-02-19T06:02:37;8.05;;;3.65;;
73693;SDS011;61997;53.974;11.670;2023-02-19T06:05:03;7.78;;;4.00;;
73693;SDS011;61997;53.974;11.670;2023-02-19T06:07:29;8.75;;;3.78;;
73693;SDS011;61997;53.974;11.670;2023-02-19T06:09:55;7.72;;;3.50;;
73693;SDS011;61997;53.974;11.670;2023-02-19T06:12:21;8.07;;;3.53;;
73693;SDS011;61997;53.974;11.670;2023-02-19T06:14:46;7.97;;;3.67;;
73693;SDS011;61997;53.974;11.670;2023-02-19T06:17:11;8.18;;;3.70;;
73693;SDS011;61997;53.974;11.670;2023-02-19T06:19:37;7.22;;;3.70;;
73693;SDS011;61997;53.974;11.670;2023-02-19T06:22:02;5.47;;;3.03;;
73693;SDS011;61997;53.974;11.670;2023-02-19T06:24:28;5.95;;;3.28;;
73693;SDS011;61997;53.974;11.670;2023-02-19T06:26:53;6.65;;;2.90;;
73693;SDS011;61997;53.974;11.670;2023-02-19T06:29:18;6.18;;;3.58;;
73693;SDS011;61997;53.974;11.670;2023-02-19T06:31:44;6.55;;;3.13;;
73693;SDS011;61997;53.974;11.670;2023-02-19T06:34:09;5.93;;;2.72;;
73693;SDS011;61997;53.974;11.670;2023-02-19T06:36:35;5.28;;;2.70;;
73693;SDS011;61997;53.974;11.670;2023-02-19T06:39:00;5.88;;;2.88;;
73693;SDS011;61997;53.974;11.670;2023-02-19T06:41:28;6.50;;;2.70;;
73693;SDS011;61997;53.974;11.670;2023-02-19T06:43:53;7.18;;;3.17;;
73693;SDS011;61997;53.974;11.670;2023-02-19T06:46:18;4.55;;;2.50;;
73693;SDS011;61997;53.974;11.670;2023-02-19T06:48:44;6.82;;;2.58;;
73693;SDS011;61997;53.974;11.670;2023-02-19T06:51:13;5.40;;;2.97;;
73693;SDS011;61997;53.974;11.670;2023-02-19T06:53:42;6.30;;;2.65;;
73693;SDS011;61997;53.974;11.670;2023-02-19T06:56:22;6.45;;;2.40;;
73693;SDS011;61997;53.974;11.670;2023-02-19T06:58:48;5.32;;;2.92;;
73693;SDS011;61997;53.974;11.670;2023-02-19T07:01:14;4.35;;;2.47;;
73693;SDS011;61997;53.974;11.670;2023-02-19T07:03:39;5.45;;;2.63;;
73693;SDS011;61997;53.974;11.670;2023-02-19T07:06:04;4.82;;;2.33;;
73693;SDS011;61997;53.974;11.670;2023-02-19T07:08:30;5.13;;;2.45;;
73693;SDS011;61997;53.974;11.670;2023-02-19T07:10:56;4.95;;;2.60;;
73693;SDS011;61997;53.974;11.670;2023-02-19T07:13:22;5.20;;;2.33;;
73693;SDS011;61997;53.974;11.670;2023-02-19T07:15:49;5.13;;;2.00;;
73693;SDS011;61997;53.974;11.670;2023-02-19T07:18:15;5.75;;;2.72;;
73693;SDS011;61997;53.974;11.670;2023-02-19T07:20:40;5.10;;;2.58;;
73693;SDS011;61997;53.974;11.670;2023-02-19T07:23:05;3.65;;;2.05;;
73693;SDS011;61997;53.974;11.670;2023-02-19T07:25:31;3.95;;;2.40;;
73693;SDS011;61997;53.974;11.670;2023-02-19T07:27:56;3.83;;;1.98;;
73693;SDS011;61997;53.974;11.670;2023-02-19T07:30:21;6.00;;;2.80;;
73693;SDS011;61997;53.974;11.670;2023-02-19T07:32:47;5.93;;;2.28;;
73693;SDS011;61997;53.974;11.670;2023-02-19T07:35:12;4.75;;;2.42;;
73693;SDS011;61997;53.974;11.670;2023-02-19T07:37:39;4.13;;;1.70;;
73693;SDS011;61997;53.974;11.670;2023-02-19T07:40:05;3.47;;;1.73;;
73693;SDS011;61997;53.974;11.670;2023-02-19T07:42:31;3.97;;;2.38;;
73693;SDS011;61997;53.974;11.670;2023-02-19T07:44:56;3.72;;;1.60;;
73693;SDS011;61997;53.974;11.670;2023-02-19T07:47:21;3.47;;;1.77;;
73693;SDS011;61997;53.974;11.670;2023-02-19T07:49:47;6.32;;;1.92;;
73693;SDS011;61997;53.974;11.670;2023-02-19T07:52:12;3.50;;;1.75;;
73693;SDS011;61997;53.974;11.670;2023-02-19T07:54:38;6.45;;;2.30;;
73693;SDS011;61997;53.974;11.670;2023-02-19T07:57:03;5.38;;;2.05;;
73693;SDS011;61997;53.974;11.670;2023-02-19T07:59:28;3.03;;;1.83;;
73693;SDS011;61997;53.974;11.670;2023-02-19T08:01:54;4.32;;;1.88;;
73693;SDS011;61997;53.974;11.670;2023-02-19T08:04:37;3.72;;;1.83;;
73693;SDS011;61997;53.974;11.670;2023-02-19T08:07:03;4.95;;;2.08;;
73693;SDS011;61997;53.974;11.670;2023-02-19T08:09:29;3.30;;;1.85;;
73693;SDS011;61997;53.974;11.670;2023-02-19T08:11:55;4.15;;;1.70;;
73693;SDS011;61997;53.974;11.670;2023-02-19T08:14:52;4.78;;;1.60;;
73693;SDS011;61997;53.974;11.670;2023-02-19T08:17:18;4.53;;;1.77;;
73693;SDS011;61997;53.974;11.670;2023-02-19T08:19:43;3.40;;;1.63;;
73693;SDS011;61997;53.974;11.670;2023-02-19T08:22:08;3.15;;;1.50;;
73693;SDS011;61997;53.974;11.670;2023-02-19T08:24:34;3.17;;;2.00;;
73693;SDS011;61997;53.974;11.670;2023-02-19T08:27:01;3.55;;;1.42;;
73693;SDS011;61997;53.974;11.670;2023-02-19T08:29:27;4.63;;;1.65;;
73693;SDS011;61997;53.974;11.670;2023-02-19T08:31:52;4.45;;;1.48;;
73693;SDS011;61997;53.974;11.670;2023-02-19T08:34:17;4.28;;;1.73;;
73693;SDS011;61997;53.974;11.670;2023-02-19T08:36:43;3.17;;;1.40;;
73693;SDS011;61997;53.974;11.670;2023-02-19T08:39:08;3.55;;;1.50;;
73693;SDS011;61997;53.974;11.670;2023-02-19T08:41:34;3.50;;;1.30;;
73693;SDS011;61997;53.974;11.670;2023-02-19T08:43:59;2.53;;;1.40;;
73693;SDS011;61997;53.974;11.670;2023-02-19T08:46:24;1.90;;;1.23;;
73693;SDS011;61997;53.974;11.670;2023-02-19T08:48:50;3.15;;;1.40;;
73693;SDS011;61997;53.974;11.670;2023-02-19T08:51:16;3.85;;;1.30;;
73693;SDS011;61997;53.974;11.670;2023-02-19T08:53:41;4.05;;;1.20;;
73693;SDS011;61997;53.974;11.670;2023-02-19T08:56:08;3.00;;;1.27;;
73693;SDS011;61997;53.974;11.670;2023-02-19T08:58:35;3.38;;;1.35;;
73693;SDS011;61997;53.974;11.670;2023-02-19T09:01:01;2.83;;;1.20;;
73693;SDS011;61997;53.974;11.670;2023-02-19T09:03:27;3.70;;;1.52;;
73693;SDS011;61997;53.974;11.670;2023-02-19T09:05:53;1.90;;;1.00;;
73693;SDS011;61997;53.974;11.670;2023-02-19T09:08:18;3.25;;;1.20;;
73693;SDS011;61997;53.974;11.670;2023-02-19T09:10:43;4.60;;;1.58;;
73693;SDS011;61997;53.974;11.670;2023-02-19T09:13:09;1.90;;;1.08;;
73693;SDS011;61997;53.974;11.670;2023-02-19T09:15:36;2.65;;;1.30;;
73693;SDS011;61997;53.974;11.670;2023-02-19T09:18:02;3.80;;;1.20;;
73693;SDS011;61997;53.974;11.670;2023-02-19T09:20:27;3.40;;;1.50;;
73693;SDS011;61997;53.974;11.670;2023-02-19T09:22:56;1.75;;;1.05;;
73693;SDS011;61997;53.974;11.670;2023-02-19T09:25:22;3.33;;;1.20;;
73693;SDS011;61997;53.974;11.670;2023-02-19T09:27:48;2.53;;;1.25;;
73693;SDS011;61997;53.974;11.670;2023-02-19T09:30:13;2.78;;;1.48;;
73693;SDS011;61997;53.974;11.670;2023-02-19T09:32:39;2.92;;;1.17;;
73693;SDS011;61997;53.974;11.670;2023-02-19T09:35:04;1.63;;;0.90;;
73693;SDS011;61997;53.974;11.670;2023-02-19T09:37:30;2.75;;;1.23;;
73693;SDS011;61997;53.974;11.670;2023-02-19T09:39:55;4.07;;;1.20;;
73693;SDS011;61997;53.974;11.670;2023-02-19T09:42:24;2.03;;;1.02;;
73693;SDS011;61997;53.974;11.670;2023-02-19T09:44:54;2.88;;;1.20;;
73693;SDS011;61997;53.974;11.670;2023-02-19T09:47:20;2.15;;;1.00;;
73693;SDS011;61997;53.974;11.670;2023-02-19T09:49:47;5.68;;;1.30;;
73693;SDS011;61997;53.974;11.670;2023-02-19T09:52:26;3.03;;;0.93;;
73693;SDS011;61997;53.974;11.670;2023-02-19T09:54:56;1.92;;;0.93;;
73693;SDS011;61997;53.974;11.670;2023-02-19T09:57:23;2.95;;;1.20;;
73693;SDS011;61997;53.974;11.670;2023-02-19T09:59:51;2.15;;;0.80;;
73693;SDS011;61997;53.974;11.670;2023-02-19T10:02:37;2.00;;;1.20;;
73693;SDS011;61997;53.974;11.670;2023-02-19T10:05:03;3.15;;;0.98;;
73693;SDS011;61997;53.974;11.670;2023-02-19T10:07:38;1.70;;;1.00;;
73693;SDS011;61997;53.974;11.670;2023-02-19T10:10:25;2.72;;;0.80;;
73693;SDS011;61997;53.974;11.670;2023-02-19T10:12:55;2.17;;;0.82;;
73693;SDS011;61997;53.974;11.670;2023-02-19T10:15:36;1.65;;;0.70;;
73693;SDS011;61997;53.974;11.670;2023-02-19T10:18:04;2.53;;;1.00;;
73693;SDS011;61997;53.974;11.670;2023-02-19T10:20:31;2.70;;;0.90;;
73693;SDS011;61997;53.974;11.670;2023-02-19T10:23:04;1.45;;;0.82;;
73693;SDS011;61997;53.974;11.670;2023-02-19T10:25:31;2.97;;;1.02;;
73693;SDS011;61997;53.974;11.670;2023-02-19T10:27:57;2.72;;;1.08;;
73693;SDS011;61997;53.974;11.670;2023-02-19T10:30:24;2.78;;;0.70;;
73693;SDS011;61997;53.974;11.670;2023-02-19T10:33:12;4.70;;;1.33;;
73693;SDS011;61997;53.974;11.670;2023-02-19T10:35:55;2.42;;;0.82;;
73693;SDS011;61997;53.974;11.670;2023-02-19T10:38:22;2.35;;;1.00;;
73693;SDS011;61997;53.974;11.670;2023-02-19T10:40:51;3.53;;;0.88;;
73693;SDS011;61997;53.974;11.670;2023-02-19T10:43:24;3.05;;;0.80;;
73693;SDS011;61997;53.974;11.670;2023-02-19T10:45:56;2.83;;;0.60;;
73693;SDS011;61997;53.974;11.670;2023-02-19T10:48:24;2.47;;;0.77;;
73693;SDS011;61997;53.974;11.670;2023-02-19T10:50:54;2.80;;;0.80;;
73693;SDS011;61997;53.974;11.670;2023-02-19T10:53:22;2.35;;;1.23;;
73693;SDS011;61997;53.974;11.670;2023-02-19T10:56:04;2.47;;;0.95;;
73693;SDS011;61997;53.974;11.670;2023-02-19T10:58:50;1.85;;;0.80;;
73693;SDS011;61997;53.974;11.670;2023-02-19T11:01:20;1.98;;;0.60;;
73693;SDS011;61997;53.974;11.670;2023-02-19T11:03:51;1.75;;;0.68;;
73693;SDS011;61997;53.974;11.670;2023-02-19T11:06:20;1.75;;;0.70;;
73693;SDS011;61997;53.974;11.670;2023-02-19T11:08:57;1.73;;;1.10;;
73693;SDS011;61997;53.974;11.670;2023-02-19T11:11:34;2.60;;;0.98;;
73693;SDS011;61997;53.974;11.670;2023-02-19T11:14:04;3.90;;;1.17;;
73693;SDS011;61997;53.974;11.670;2023-02-19T11:16:41;3.47;;;1.13;;
73693;SDS011;61997;53.974;11.670;2023-02-19T11:19:24;2.92;;;1.48;;
73693;SDS011;61997;53.974;11.670;2023-02-19T11:21:50;2.30;;;1.05;;
73693;SDS011;61997;53.974;11.670;2023-02-19T11:24:27;2.40;;;0.90;;
73693;SDS011;61997;53.974;11.670;2023-02-19T11:26:57;2.75;;;1.13;;
73693;SDS011;61997;53.974;11.670;2023-02-19T11:29:23;1.90;;;1.00;;
73693;SDS011;61997;53.974;11.670;2023-02-19T11:31:52;2.78;;;1.10;;
73693;SDS011;61997;53.974;11.670;2023-02-19T11:34:25;2.13;;;1.02;;
73693;SDS011;61997;53.974;11.670;2023-02-19T11:37:07;3.00;;;1.17;;
73693;SDS011;61997;53.974;11.670;2023-02-19T11:39:32;2.17;;;1.00;;
73693;SDS011;61997;53.974;11.670;2023-02-19T11:42:08;3.45;;;1.65;;
73693;SDS011;61997;53.974;11.670;2023-02-19T11:50:02;4.90;;;1.38;;
73693;SDS011;61997;53.974;11.670;2023-02-19T12:01:08;4.65;;;1.73;;
73693;SDS011;61997;53.974;11.670;2023-02-19T12:03:48;4.25;;;1.58;;
73693;SDS011;61997;53.974;11.670;2023-02-19T12:20:20;3.42;;;1.58;;
73693;SDS011;61997;53.974;11.670;2023-02-19T12:25:51;5.10;;;1.48;;
73693;SDS011;61997;53.974;11.670;2023-02-19T12:28:42;3.63;;;1.50;;
73693;SDS011;61997;53.974;11.670;2023-02-19T12:44:32;3.15;;;1.77;;
73693;SDS011;61997;53.974;11.670;2023-02-19T12:47:14;3.13;;;1.33;;
73693;SDS011;61997;53.974;11.670;2023-02-19T12:49:44;3.67;;;1.38;;
73693;SDS011;61997;53.974;11.670;2023-02-19T12:52:20;5.65;;;1.65;;
73693;SDS011;61997;53.974;11.670;2023-02-19T12:54:49;3.05;;;1.33;;
73693;SDS011;61997;53.974;11.670;2023-02-19T12:57:27;4.82;;;1.83;;
73693;SDS011;61997;53.974;11.670;2023-02-19T13:05:14;3.40;;;2.08;;
73693;SDS011;61997;53.974;11.670;2023-02-19T13:15:56;6.53;;;3.15;;
73693;SDS011;61997;53.974;11.670;2023-02-19T13:18:25;7.95;;;3.30;;
73693;SDS011;61997;53.974;11.670;2023-02-19T13:20:54;8.68;;;4.28;;
73693;SDS011;61997;53.974;11.670;2023-02-19T13:37:39;12.57;;;6.95;;
73693;SDS011;61997;53.974;11.670;2023-02-19T13:40:05;15.88;;;7.97;;
73693;SDS011;61997;53.974;11.670;2023-02-19T13:42:56;13.38;;;6.35;;
73693;SDS011;61997;53.974;11.670;2023-02-19T13:45:33;14.10;;;7.35;;
73693;SDS011;61997;53.974;11.670;2023-02-19T13:48:11;11.90;;;6.75;;
73693;SDS011;61997;53.974;11.670;2023-02-19T13:50:38;14.85;;;7.10;;
73693;SDS011;61997;53.974;11.670;2023-02-19T14:14:46;15.57;;;7.38;;
73693;SDS011;61997;53.974;11.670;2023-02-19T14:19:56;14.38;;;7.80;;
73693;SDS011;61997;53.974;11.670;2023-02-19T14:27:51;15.60;;;8.73;;
73693;SDS011;61997;53.974;11.670;2023-02-19T14:30:18;18.13;;;9.93;;
73693;SDS011;61997;53.974;11.670;2023-02-19T14:32:45;19.45;;;10.57;;
73693;SDS011;61997;53.974;11.670;2023-02-19T14:35:20;19.05;;;10.55;;
73693;SDS011;61997;53.974;11.670;2023-02-19T14:37:47;19.08;;;9.50;;
73693;SDS011;61997;53.974;11.670;2023-02-19T14:40:21;20.10;;;11.10;;
73693;SDS011;61997;53.974;11.670;2023-02-19T14:42:53;19.63;;;11.00;;
73693;SDS011;61997;53.974;11.670;2023-02-19T14:45:20;21.80;;;11.50;;
73693;SDS011;61997;53.974;11.670;2023-02-19T14:47:46;22.52;;;12.10;;
73693;SDS011;61997;53.974;11.670;2023-02-19T14:50:19;25.85;;;12.65;;
73693;SDS011;61997;53.974;11.670;2023-02-19T14:52:50;25.83;;;12.30;;
73693;SDS011;61997;53.974;11.670;2023-02-19T14:58:02;23.48;;;10.93;;
73693;SDS011;61997;53.974;11.670;2023-02-19T15:00:32;21.25;;;11.15;;
73693;SDS011;61997;53.974;11.670;2023-02-19T15:03:01;26.27;;;11.57;;
73693;SDS011;61997;53.974;11.670;2023-02-19T15:05:28;21.60;;;11.13;;
73693;SDS011;61997;53.974;11.670;2023-02-19T15:08:02;21.55;;;11.40;;
73693;SDS011;61997;53.974;11.670;2023-02-19T15:10:35;23.83;;;12.27;;
73693;SDS011;61997;53.974;11.670;2023-02-19T15:13:02;26.00;;;13.15;;
73693;SDS011;61997;53.974;11.670;2023-02-19T15:15:30;20.60;;;11.32;;
73693;SDS011;61997;53.974;11.670;2023-02-19T15:17:59;22.45;;;11.13;;
73693;SDS011;61997;53.974;11.670;2023-02-19T15:20:26;24.60;;;11.95;;
73693;SDS011;61997;53.974;11.670;2023-02-19T15:22:53;24.92;;;10.70;;
73693;SDS011;61997;53.974;11.670;2023-02-19T15:25:21;25.02;;;11.50;;
73693;SDS011;61997;53.974;11.670;2023-02-19T15:27:48;24.45;;;11.52;;
73693;SDS011;61997;53.974;11.670;2023-02-19T15:30:24;22.90;;;11.98;;
73693;SDS011;61997;53.974;11.670;2023-02-19T15:32:56;23.98;;;11.30;;
73693;SDS011;61997;53.974;11.670;2023-02-19T15:35:23;22.95;;;11.15;;
73693;SDS011;61997;53.974;11.670;2023-02-19T15:37:50;20.15;;;10.95;;
73693;SDS011;61997;53.974;11.670;2023-02-19T15:40:16;20.23;;;10.70;;
73693;SDS011;61997;53.974;11.670;2023-02-19T15:42:44;24.17;;;11.48;;
73693;SDS011;61997;53.974;11.670;2023-02-19T15:48:01;22.70;;;11.00;;
73693;SDS011;61997;53.974;11.670;2023-02-19T15:50:32;19.55;;;10.43;;
73693;SDS011;61997;53.974;11.670;2023-02-19T15:55:33;20.67;;;10.68;;
73693;SDS011;61997;53.974;11.670;2023-02-19T16:00:44;22.08;;;10.80;;
73693;SDS011;61997;53.974;11.670;2023-02-19T16:03:18;19.33;;;9.55;;
73693;SDS011;61997;53.974;11.670;2023-02-19T16:05:44;21.45;;;10.55;;
73693;SDS011;61997;53.974;11.670;2023-02-19T16:10:36;21.08;;;10.30;;
73693;SDS011;61997;53.974;11.670;2023-02-19T16:13:02;19.23;;;10.25;;
73693;SDS011;61997;53.974;11.670;2023-02-19T16:15:30;21.70;;;10.73;;
73693;SDS011;61997;53.974;11.670;2023-02-19T16:17:56;26.45;;;10.48;;
73693;SDS011;61997;53.974;11.670;2023-02-19T16:20:29;20.45;;;10.23;;
73693;SDS011;61997;53.974;11.670;2023-02-19T16:22:57;18.85;;;9.73;;
73693;SDS011;61997;53.974;11.670;2023-02-19T16:25:36;19.92;;;10.25;;
73693;SDS011;61997;53.974;11.670;2023-02-19T16:28:12;18.90;;;9.88;;
73693;SDS011;61997;53.974;11.670;2023-02-19T16:30:38;19.45;;;9.27;;
73693;SDS011;61997;53.974;11.670;2023-02-19T16:33:20;17.73;;;9.27;;
73693;SDS011;61997;53.974;11.670;2023-02-19T16:39:18;20.27;;;9.15;;
73693;SDS011;61997;53.974;11.670;2023-02-19T16:46:46;21.25;;;10.00;;
73693;SDS011;61997;53.974;11.670;2023-02-19T16:49:31;17.13;;;9.13;;
73693;SDS011;61997;53.974;11.670;2023-02-19T16:51:59;19.52;;;9.25;;
73693;SDS011;61997;53.974;11.670;2023-02-19T16:54:25;18.92;;;9.85;;
73693;SDS011;61997;53.974;11.670;2023-02-19T16:56:50;20.05;;;9.43;;
73693;SDS011;61997;53.974;11.670;2023-02-19T16:59:15;17.77;;;9.25;;
73693;SDS011;61997;53.974;11.670;2023-02-19T17:01:41;18.33;;;9.02;;
73693;SDS011;61997;53.974;11.670;2023-02-19T17:04:07;20.13;;;10.00;;
73693;SDS011;61997;53.974;11.670;2023-02-19T17:06:34;18.60;;;9.70;;
73693;SDS011;61997;53.974;11.670;2023-02-19T17:09:02;20.05;;;8.93;;
73693;SDS011;61997;53.974;11.670;2023-02-19T17:11:28;16.75;;;8.40;;
73693;SDS011;61997;53.974;11.670;2023-02-19T17:14:09;20.40;;;9.25;;
73693;SDS011;61997;53.974;11.670;2023-02-19T17:16:34;21.70;;;9.65;;
73693;SDS011;61997;53.974;11.670;2023-02-19T17:19:13;15.15;;;9.50;;